createdAt,value
2022-10-08T00:01:07.004Z,59.09
2022-10-08T00:06:04.760Z,59.41
2022-10-08T00:11:03.349Z,60.20
2022-10-08T00:15:59.939Z,60.21
2022-10-08T00:21:04.081Z,60.43
2022-10-08T00:26:03.598Z,61.01
2022-10-08T00:31:05.849Z,60.53
2022-10-08T00:36:02.618Z,60.09
2022-10-08T00:40:59.407Z,60.33
2022-10-08T00:45:59.548Z,61.89
2022-10-08T00:50:56.243Z,62.72
2022-10-08T00:55:52.787Z,61.38
2022-10-08T01:00:52.148Z,61.32
2022-10-08T01:05:51.880Z,60.88
2022-10-08T01:10:53.219Z,60.67
2022-10-08T01:15:57.333Z,60.21
2022-10-08T01:20:59.438Z,59.13
2022-10-08T01:25:57.557Z,58.51
2022-10-08T01:30:57.688Z,59.98
2022-10-08T01:35:56.787Z,59.46
2022-10-08T01:40:58.387Z,58.43
2022-10-08T01:45:58.300Z,57.84
2022-10-08T01:50:57.488Z,58.28
2022-10-08T01:55:55.847Z,58.65
2022-10-08T02:00:54.300Z,57.71
2022-10-08T02:05:55.818Z,57.64
2022-10-08T02:10:52.783Z,57.55
2022-10-08T02:15:52.947Z,57.40
2022-10-08T02:20:52.825Z,57.17
2022-10-08T02:25:51.451Z,59.49
2022-10-08T02:30:50.525Z,60.62
2022-10-08T02:35:50.998Z,59.76
2022-10-08T02:40:50.293Z,59.40
2022-10-08T02:45:52.464Z,58.58
2022-10-08T02:50:50.950Z,58.19
2022-10-08T02:55:54.142Z,58.08
2022-10-08T03:00:54.609Z,57.74
2022-10-08T03:05:52.438Z,58.42
2022-10-08T03:10:49.685Z,58.07
2022-10-08T03:15:48.117Z,58.34
2022-10-08T03:20:46.460Z,59.00
2022-10-08T03:25:43.025Z,59.83
2022-10-08T03:30:41.014Z,59.55
2022-10-08T03:35:40.255Z,61.91
2022-10-08T03:40:37.424Z,62.40
2022-10-08T03:45:33.918Z,62.44
2022-10-08T03:50:30.394Z,62.95
2022-10-08T03:55:27.220Z,62.13
2022-10-08T04:00:24.421Z,60.84
2022-10-08T04:05:20.980Z,61.77
2022-10-08T04:10:17.560Z,61.04
2022-10-08T04:15:16.724Z,61.08
2022-10-08T04:20:14.016Z,61.51
2022-10-08T04:25:10.767Z,61.00
2022-10-08T04:30:07.822Z,59.44
2022-10-08T04:35:04.712Z,58.53
2022-10-08T04:40:02.119Z,59.64
2022-10-08T04:44:58.712Z,60.63
2022-10-08T04:49:55.497Z,59.96
2022-10-08T04:54:52.120Z,63.09
2022-10-08T05:00:16.511Z,63.78
2022-10-08T05:05:07.654Z,64.08
2022-10-08T05:10:04.690Z,64.10
2022-10-08T05:15:01.929Z,63.54
2022-10-08T05:19:58.446Z,63.75
2022-10-08T05:24:57.064Z,65.19
2022-10-08T05:29:53.610Z,64.50
2022-10-08T05:34:50.900Z,65.20
2022-10-08T05:39:47.947Z,66.78
2022-10-08T05:44:46.762Z,67.04
2022-10-08T05:49:43.392Z,68.90
2022-10-08T05:54:40.781Z,70.78
2022-10-08T05:59:38.353Z,72.11
2022-10-08T06:04:35.230Z,71.95
2022-10-08T06:09:32.116Z,70.00
2022-10-08T06:14:29.448Z,69.36
2022-10-08T06:19:26.092Z,69.67
2022-10-08T06:24:22.740Z,69.38
2022-10-08T06:29:19.311Z,69.65
2022-10-08T06:34:19.417Z,69.76
2022-10-08T06:39:17.278Z,71.92
2022-10-08T06:44:29.993Z,71.23
2022-10-08T06:49:27.176Z,71.14
2022-10-08T06:54:28.116Z,70.70
2022-10-08T06:59:24.719Z,71.00
2022-10-08T07:04:21.331Z,69.92
2022-10-08T07:09:18.508Z,70.09
2022-10-08T07:14:15.190Z,69.68
2022-10-08T07:19:13.148Z,68.99
2022-10-08T07:24:09.925Z,68.85
2022-10-08T07:29:08.203Z,67.39
2022-10-08T07:34:05.516Z,66.32
2022-10-08T07:39:03.871Z,67.04
2022-10-08T07:44:01.782Z,66.23
2022-10-08T07:49:08.376Z,64.69
2022-10-08T07:54:07.093Z,64.34
2022-10-08T07:59:06.045Z,63.59
2022-10-08T08:04:04.910Z,62.33
2022-10-08T08:09:20.858Z,61.05
2022-10-08T08:14:21.047Z,60.45
2022-10-08T08:19:18.721Z,59.74
2022-10-08T08:24:15.994Z,59.78
2022-10-08T08:29:13.322Z,59.41
2022-10-08T08:34:12.842Z,58.54
2022-10-08T08:39:13.850Z,58.51
2022-10-08T08:44:14.386Z,58.16
2022-10-08T08:49:15.410Z,57.68
2022-10-08T08:54:18.227Z,57.50
2022-10-08T08:59:23.197Z,57.23
2022-10-08T09:04:22.979Z,55.61
2022-10-08T09:09:26.054Z,55.88
2022-10-08T09:14:32.377Z,55.93
2022-10-08T09:19:29.103Z,55.71
2022-10-08T09:24:32.008Z,56.11
2022-10-08T09:29:33.333Z,55.36
2022-10-08T09:34:32.105Z,55.25
2022-10-08T09:39:32.655Z,54.38
2022-10-08T09:44:38.825Z,54.55
2022-10-08T09:49:41.179Z,54.89
2022-10-08T09:54:42.985Z,54.38
2022-10-08T09:59:49.506Z,54.24
2022-10-08T10:04:47.698Z,53.89
2022-10-08T10:09:47.690Z,53.69
2022-10-08T10:14:45.676Z,52.77
2022-10-08T10:19:46.098Z,51.61
2022-10-08T10:24:49.739Z,51.48
2022-10-08T10:29:51.437Z,51.22
2022-10-08T10:34:53.167Z,50.73
2022-10-08T10:39:55.031Z,50.80
2022-10-08T10:44:52.923Z,49.72
2022-10-08T10:49:52.471Z,49.61
2022-10-08T10:54:58.626Z,49.70
2022-10-08T11:00:01.123Z,49.57
2022-10-08T11:05:06.033Z,49.31
2022-10-08T11:10:08.658Z,49.40
2022-10-08T11:15:12.627Z,48.26
2022-10-08T11:20:24.707Z,48.82
2022-10-08T11:25:27.286Z,47.17
2022-10-08T11:30:28.648Z,46.74
2022-10-08T11:35:31.674Z,47.22
2022-10-08T11:40:31.980Z,46.76
2022-10-08T11:45:32.689Z,47.33
2022-10-08T11:50:31.384Z,46.92
2022-10-08T11:55:31.328Z,47.34
2022-10-08T12:00:37.864Z,47.63
2022-10-08T12:05:37.900Z,47.45
2022-10-08T12:10:36.224Z,47.65
2022-10-08T12:15:49.607Z,47.42
2022-10-08T12:20:46.289Z,47.53
2022-10-08T12:26:04.227Z,47.11
2022-10-08T12:31:02.359Z,46.64
2022-10-08T12:36:02.681Z,46.73
2022-10-08T12:41:08.150Z,46.84
2022-10-08T12:46:11.681Z,46.28
2022-10-08T12:51:19.993Z,46.90
2022-10-08T12:56:20.430Z,45.92
2022-10-08T13:01:18.163Z,45.69
2022-10-08T13:06:16.342Z,44.99
2022-10-08T13:11:14.501Z,44.70
2022-10-08T13:16:12.741Z,44.12
2022-10-08T13:21:23.525Z,44.68
2022-10-08T13:26:36.522Z,44.35
2022-10-08T13:31:36.413Z,44.22
2022-10-08T13:36:48.733Z,44.40
2022-10-08T13:41:52.250Z,44.49
2022-10-08T13:46:49.811Z,44.02
2022-10-08T13:51:46.872Z,44.55
2022-10-08T13:56:43.925Z,44.68
2022-10-08T14:01:40.603Z,44.84
2022-10-08T14:06:48.062Z,43.41
2022-10-08T14:11:50.102Z,42.83
2022-10-08T14:16:47.328Z,42.89
2022-10-08T14:21:44.850Z,42.58
2022-10-08T14:26:43.861Z,42.54
2022-10-08T14:31:40.823Z,42.83
2022-10-08T14:36:39.479Z,42.89
2022-10-08T14:41:37.465Z,42.72
2022-10-08T14:46:42.750Z,43.20
2022-10-08T14:51:39.597Z,42.91
2022-10-08T14:56:37.721Z,43.72
2022-10-08T15:01:36.065Z,43.73
2022-10-08T15:06:32.901Z,43.79
2022-10-08T15:11:29.411Z,43.86
2022-10-08T15:16:28.068Z,44.23
2022-10-08T15:21:26.504Z,46.61
2022-10-08T15:26:30.326Z,46.25
2022-10-08T15:31:31.965Z,46.36
2022-10-08T15:36:29.926Z,46.20
2022-10-08T15:41:27.495Z,46.06
2022-10-08T15:46:28.356Z,45.83
2022-10-08T15:51:25.625Z,45.80
2022-10-08T15:56:22.235Z,45.35
2022-10-08T16:01:22.806Z,45.18
2022-10-08T16:06:23.845Z,46.82
2022-10-08T16:11:22.227Z,47.85
2022-10-08T16:16:18.961Z,48.18
2022-10-08T16:21:15.511Z,49.48
2022-10-08T16:26:13.001Z,49.34
2022-10-08T16:31:11.067Z,49.38
2022-10-08T16:36:09.370Z,49.92
2022-10-08T16:41:13.229Z,50.11
2022-10-08T16:46:16.060Z,50.91
2022-10-08T16:51:12.986Z,50.84
2022-10-08T16:56:09.849Z,50.79
2022-10-08T17:01:07.613Z,51.30
2022-10-08T17:06:05.783Z,51.41
2022-10-08T17:11:03.520Z,51.13
2022-10-08T17:16:01.002Z,51.29
2022-10-08T17:20:58.417Z,51.56
2022-10-08T17:25:56.468Z,51.18
2022-10-08T17:30:53.202Z,51.13
2022-10-08T17:35:58.968Z,51.19
2022-10-08T17:40:56.464Z,51.43
2022-10-08T17:45:53.559Z,51.86
2022-10-08T17:50:50.272Z,51.79
2022-10-08T17:55:47.740Z,51.95
2022-10-08T18:00:45.439Z,51.90
2022-10-08T18:05:54.931Z,51.55
2022-10-08T18:10:51.912Z,51.78
2022-10-08T18:15:49.438Z,51.66
2022-10-08T18:20:52.993Z,51.71
2022-10-08T18:25:53.777Z,52.69
2022-10-08T18:30:51.656Z,51.96
2022-10-08T18:35:54.115Z,51.62
2022-10-08T18:40:51.742Z,53.12
2022-10-08T18:45:48.251Z,53.88
2022-10-08T18:50:45.497Z,54.19
2022-10-08T18:55:47.838Z,53.94
2022-10-08T19:00:45.889Z,54.66
2022-10-08T19:05:42.537Z,54.75
2022-10-08T19:10:41.084Z,55.13
2022-10-08T19:15:38.345Z,54.70
2022-10-08T19:20:35.418Z,55.52
2022-10-08T19:25:33.577Z,55.17
2022-10-08T19:30:33.628Z,55.30
2022-10-08T19:35:30.231Z,56.00
2022-10-08T19:40:30.414Z,55.93
2022-10-08T19:45:27.191Z,55.11
2022-10-08T19:50:24.517Z,54.62
2022-10-08T19:55:21.352Z,54.01
2022-10-08T20:00:18.547Z,54.64
2022-10-08T20:05:15.726Z,54.46
2022-10-08T20:10:15.150Z,54.41
2022-10-08T20:15:11.825Z,54.69
2022-10-08T20:20:31.275Z,53.94
2022-10-08T20:25:26.821Z,53.78
2022-10-08T20:30:23.562Z,55.02
2022-10-08T20:35:20.801Z,55.50
2022-10-08T20:40:17.399Z,54.38
2022-10-08T20:45:14.931Z,53.71
2022-10-08T20:50:13.525Z,53.60
2022-10-08T20:55:10.237Z,54.99
2022-10-08T21:00:07.654Z,55.61
2022-10-08T21:05:05.699Z,55.98
2022-10-08T21:10:02.464Z,57.05
2022-10-08T21:14:59.069Z,56.63
2022-10-08T21:19:57.084Z,55.43
2022-10-08T21:24:54.711Z,54.43
2022-10-08T21:29:51.364Z,55.49
2022-10-08T21:34:47.945Z,57.44
2022-10-08T21:39:47.390Z,58.65
2022-10-08T21:44:44.620Z,58.32
2022-10-08T21:49:41.167Z,57.70
2022-10-08T21:54:37.756Z,58.20
2022-10-08T21:59:34.275Z,58.19
2022-10-08T22:04:31.470Z,58.38
2022-10-08T22:09:28.974Z,57.87
2022-10-08T22:14:25.667Z,57.71
2022-10-08T22:19:22.243Z,58.23
2022-10-08T22:24:19.547Z,58.82
2022-10-08T22:29:16.072Z,58.94
2022-10-08T22:34:13.090Z,59.31
2022-10-08T22:39:09.793Z,59.06
2022-10-08T22:44:07.044Z,58.45
2022-10-08T22:49:04.536Z,58.15
2022-10-08T22:54:01.247Z,59.12
2022-10-08T22:58:58.041Z,59.67
2022-10-08T23:03:55.472Z,59.71
2022-10-08T23:08:53.427Z,59.94
2022-10-08T23:13:51.004Z,60.05
2022-10-08T23:18:52.299Z,59.90
2022-10-08T23:23:49.926Z,59.83
2022-10-08T23:28:49.704Z,60.11
2022-10-08T23:33:46.974Z,59.66
2022-10-08T23:38:43.529Z,61.79
2022-10-08T23:43:41.870Z,60.99
2022-10-08T23:48:38.776Z,61.53
2022-10-08T23:53:35.727Z,60.68
2022-10-08T23:58:32.701Z,60.75
